sensor_id;sensor_type;location;lat;lon;timestamp;P1;durP1;ratioP1;P2;durP2;ratioP2
56043;SDS011;41912;51.022;3.664;2023-03-01T00:01:00;15.23;;;8.75;;
56043;SDS011;41912;51.022;3.664;2023-03-01T00:03:32;13.43;;;8.30;;
56043;SDS011;41912;51.022;3.664;2023-03-01T00:05:59;15.43;;;8.48;;
56043;SDS011;41912;51.022;3.664;2023-03-01T00:08:25;14.05;;;8.55;;
56043;SDS011;41912;51.022;3.664;2023-03-01T00:11:10;15.00;;;9.05;;
56043;SDS011;41912;51.022;3.664;2023-03-01T00:14:03;16.42;;;8.43;;
56043;SDS011;41912;51.022;3.664;2023-03-01T00:16:37;13.27;;;8.68;;
56043;SDS011;41912;51.022;3.664;2023-03-01T00:19:04;12.40;;;7.57;;
56043;SDS011;41912;51.022;3.664;2023-03-01T00:21:31;16.70;;;9.70;;
56043;SDS011;41912;51.022;3.664;2023-03-01T00:23:58;15.10;;;8.43;;
56043;SDS011;41912;51.022;3.664;2023-03-01T00:26:24;13.77;;;8.98;;
56043;SDS011;41912;51.022;3.664;2023-03-01T00:28:51;14.32;;;9.10;;
56043;SDS011;41912;51.022;3.664;2023-03-01T00:31:18;17.58;;;8.75;;
56043;SDS011;41912;51.022;3.664;2023-03-01T00:33:45;18.05;;;10.55;;
56043;SDS011;41912;51.022;3.664;2023-03-01T00:36:11;13.30;;;8.02;;
56043;SDS011;41912;51.022;3.664;2023-03-01T00:38:40;15.27;;;8.77;;
56043;SDS011;41912;51.022;3.664;2023-03-01T00:41:10;17.13;;;9.35;;
56043;SDS011;41912;51.022;3.664;2023-03-01T00:43:38;15.98;;;8.50;;
56043;SDS011;41912;51.022;3.664;2023-03-01T00:46:08;15.38;;;8.52;;
56043;SDS011;41912;51.022;3.664;2023-03-01T00:48:36;18.50;;;8.68;;
56043;SDS011;41912;51.022;3.664;2023-03-01T00:51:05;14.73;;;8.80;;
56043;SDS011;41912;51.022;3.664;2023-03-01T00:53:36;17.00;;;9.23;;
56043;SDS011;41912;51.022;3.664;2023-03-01T00:56:02;14.50;;;8.07;;
56043;SDS011;41912;51.022;3.664;2023-03-01T00:58:30;16.33;;;8.95;;
56043;SDS011;41912;51.022;3.664;2023-03-01T01:00:55;12.90;;;7.97;;
56043;SDS011;41912;51.022;3.664;2023-03-01T01:03:21;17.25;;;8.90;;
56043;SDS011;41912;51.022;3.664;2023-03-01T01:05:48;14.15;;;8.30;;
56043;SDS011;41912;51.022;3.664;2023-03-01T01:08:13;13.50;;;7.50;;
56043;SDS011;41912;51.022;3.664;2023-03-01T01:10:39;17.83;;;8.27;;
56043;SDS011;41912;51.022;3.664;2023-03-01T01:13:05;14.48;;;8.32;;
56043;SDS011;41912;51.022;3.664;2023-03-01T01:15:34;14.73;;;8.18;;
56043;SDS011;41912;51.022;3.664;2023-03-01T01:18:00;17.85;;;8.77;;
56043;SDS011;41912;51.022;3.664;2023-03-01T01:20:26;18.98;;;8.40;;
56043;SDS011;41912;51.022;3.664;2023-03-01T01:22:51;14.27;;;8.40;;
56043;SDS011;41912;51.022;3.664;2023-03-01T01:25:17;14.75;;;8.48;;
56043;SDS011;41912;51.022;3.664;2023-03-01T01:27:43;15.50;;;8.45;;
56043;SDS011;41912;51.022;3.664;2023-03-01T01:30:09;15.05;;;8.70;;
56043;SDS011;41912;51.022;3.664;2023-03-01T01:32:35;15.85;;;8.38;;
56043;SDS011;41912;51.022;3.664;2023-03-01T01:35:00;13.95;;;7.78;;
56043;SDS011;41912;51.022;3.664;2023-03-01T01:37:26;12.70;;;8.45;;
56043;SDS011;41912;51.022;3.664;2023-03-01T01:39:58;12.70;;;7.70;;
56043;SDS011;41912;51.022;3.664;2023-03-01T01:42:26;17.85;;;8.68;;
56043;SDS011;41912;51.022;3.664;2023-03-01T01:47:55;12.77;;;7.72;;
56043;SDS011;41912;51.022;3.664;2023-03-01T01:50:27;16.33;;;7.72;;
56043;SDS011;41912;51.022;3.664;2023-03-01T01:53:02;12.73;;;8.35;;
56043;SDS011;41912;51.022;3.664;2023-03-01T01:55:41;14.13;;;7.88;;
56043;SDS011;41912;51.022;3.664;2023-03-01T01:58:11;15.35;;;8.02;;
56043;SDS011;41912;51.022;3.664;2023-03-01T02:00:40;13.20;;;8.13;;
56043;SDS011;41912;51.022;3.664;2023-03-01T02:03:12;16.23;;;8.93;;
56043;SDS011;41912;51.022;3.664;2023-03-01T02:08:31;13.15;;;8.18;;
56043;SDS011;41912;51.022;3.664;2023-03-01T02:11:00;13.18;;;7.93;;
56043;SDS011;41912;51.022;3.664;2023-03-01T02:13:26;14.75;;;8.20;;
56043;SDS011;41912;51.022;3.664;2023-03-01T02:15:52;14.10;;;8.25;;
56043;SDS011;41912;51.022;3.664;2023-03-01T02:18:18;11.85;;;8.10;;
56043;SDS011;41912;51.022;3.664;2023-03-01T02:23:30;24.05;;;8.43;;
56043;SDS011;41912;51.022;3.664;2023-03-01T02:26:15;13.77;;;7.80;;
56043;SDS011;41912;51.022;3.664;2023-03-01T02:28:49;12.35;;;7.93;;
56043;SDS011;41912;51.022;3.664;2023-03-01T02:31:17;17.63;;;9.07;;
56043;SDS011;41912;51.022;3.664;2023-03-01T02:34:04;11.55;;;7.70;;
56043;SDS011;41912;51.022;3.664;2023-03-01T02:36:34;18.65;;;7.80;;
56043;SDS011;41912;51.022;3.664;2023-03-01T02:39:22;14.88;;;7.47;;
56043;SDS011;41912;51.022;3.664;2023-03-01T02:41:53;13.32;;;7.78;;
56043;SDS011;41912;51.022;3.664;2023-03-01T02:44:20;15.73;;;8.52;;
56043;SDS011;41912;51.022;3.664;2023-03-01T02:46:47;12.88;;;7.72;;
56043;SDS011;41912;51.022;3.664;2023-03-01T02:49:17;14.77;;;9.10;;
56043;SDS011;41912;51.022;3.664;2023-03-01T02:51:48;17.73;;;9.32;;
56043;SDS011;41912;51.022;3.664;2023-03-01T02:54:31;16.55;;;9.00;;
56043;SDS011;41912;51.022;3.664;2023-03-01T02:57:13;16.98;;;8.65;;
56043;SDS011;41912;51.022;3.664;2023-03-01T02:59:39;13.25;;;8.18;;
56043;SDS011;41912;51.022;3.664;2023-03-01T03:02:29;16.92;;;8.32;;
56043;SDS011;41912;51.022;3.664;2023-03-01T03:05:03;14.23;;;9.05;;
56043;SDS011;41912;51.022;3.664;2023-03-01T03:07:40;15.98;;;9.85;;
56043;SDS011;41912;51.022;3.664;2023-03-01T03:10:08;14.43;;;8.88;;
56043;SDS011;41912;51.022;3.664;2023-03-01T03:12:36;15.82;;;8.90;;
56043;SDS011;41912;51.022;3.664;2023-03-01T03:15:03;15.13;;;8.48;;
56043;SDS011;41912;51.022;3.664;2023-03-01T03:17:34;13.38;;;9.02;;
56043;SDS011;41912;51.022;3.664;2023-03-01T03:20:03;14.88;;;8.75;;
56043;SDS011;41912;51.022;3.664;2023-03-01T03:22:31;17.10;;;8.77;;
56043;SDS011;41912;51.022;3.664;2023-03-01T03:24:58;15.13;;;9.20;;
56043;SDS011;41912;51.022;3.664;2023-03-01T03:27:24;17.17;;;9.38;;
56043;SDS011;41912;51.022;3.664;2023-03-01T03:29:50;20.17;;;9.27;;
56043;SDS011;41912;51.022;3.664;2023-03-01T03:32:15;25.40;;;11.27;;
56043;SDS011;41912;51.022;3.664;2023-03-01T03:34:41;16.95;;;10.02;;
56043;SDS011;41912;51.022;3.664;2023-03-01T03:37:07;16.67;;;9.93;;
56043;SDS011;41912;51.022;3.664;2023-03-01T03:39:52;15.50;;;9.48;;
56043;SDS011;41912;51.022;3.664;2023-03-01T03:42:19;21.70;;;11.85;;
56043;SDS011;41912;51.022;3.664;2023-03-01T03:44:46;15.23;;;9.80;;
56043;SDS011;41912;51.022;3.664;2023-03-01T03:47:12;18.70;;;9.73;;
56043;SDS011;41912;51.022;3.664;2023-03-01T03:49:38;22.05;;;11.43;;
56043;SDS011;41912;51.022;3.664;2023-03-01T03:52:03;17.83;;;9.93;;
56043;SDS011;41912;51.022;3.664;2023-03-01T03:54:29;22.60;;;11.20;;
56043;SDS011;41912;51.022;3.664;2023-03-01T03:56:54;19.27;;;10.95;;
56043;SDS011;41912;51.022;3.664;2023-03-01T03:59:20;21.25;;;10.57;;
56043;SDS011;41912;51.022;3.664;2023-03-01T04:01:46;18.02;;;11.00;;
56043;SDS011;41912;51.022;3.664;2023-03-01T04:04:11;18.70;;;11.25;;
56043;SDS011;41912;51.022;3.664;2023-03-01T04:06:38;17.92;;;10.82;;
56043;SDS011;41912;51.022;3.664;2023-03-01T04:09:03;18.95;;;11.35;;
56043;SDS011;41912;51.022;3.664;2023-03-01T04:11:29;22.02;;;10.85;;
56043;SDS011;41912;51.022;3.664;2023-03-01T04:13:56;18.17;;;10.68;;
56043;SDS011;41912;51.022;3.664;2023-03-01T04:19:45;20.17;;;11.75;;
56043;SDS011;41912;51.022;3.664;2023-03-01T04:22:13;24.45;;;12.80;;
56043;SDS011;41912;51.022;3.664;2023-03-01T04:24:43;21.00;;;11.77;;
56043;SDS011;41912;51.022;3.664;2023-03-01T04:27:10;23.08;;;11.48;;
56043;SDS011;41912;51.022;3.664;2023-03-01T04:29:36;21.73;;;11.70;;
56043;SDS011;41912;51.022;3.664;2023-03-01T04:32:02;18.92;;;12.35;;
56043;SDS011;41912;51.022;3.664;2023-03-01T04:34:28;22.58;;;12.50;;
56043;SDS011;41912;51.022;3.664;2023-03-01T04:36:54;25.13;;;12.25;;
56043;SDS011;41912;51.022;3.664;2023-03-01T04:39:20;20.52;;;11.68;;
56043;SDS011;41912;51.022;3.664;2023-03-01T04:41:46;21.77;;;12.27;;
56043;SDS011;41912;51.022;3.664;2023-03-01T04:44:12;23.65;;;12.35;;
56043;SDS011;41912;51.022;3.664;2023-03-01T04:46:38;19.63;;;11.63;;
56043;SDS011;41912;51.022;3.664;2023-03-01T04:49:03;21.05;;;11.18;;
56043;SDS011;41912;51.022;3.664;2023-03-01T04:51:30;22.05;;;11.52;;
56043;SDS011;41912;51.022;3.664;2023-03-01T04:53:57;21.35;;;11.60;;
56043;SDS011;41912;51.022;3.664;2023-03-01T04:56:23;24.92;;;11.70;;
56043;SDS011;41912;51.022;3.664;2023-03-01T04:58:49;21.77;;;12.60;;
56043;SDS011;41912;51.022;3.664;2023-03-01T05:01:19;25.17;;;12.68;;
56043;SDS011;41912;51.022;3.664;2023-03-01T05:03:46;23.92;;;11.77;;
56043;SDS011;41912;51.022;3.664;2023-03-01T05:06:13;23.42;;;12.00;;
56043;SDS011;41912;51.022;3.664;2023-03-01T05:08:40;22.35;;;12.90;;
56043;SDS011;41912;51.022;3.664;2023-03-01T05:11:07;22.38;;;12.55;;
56043;SDS011;41912;51.022;3.664;2023-03-01T05:13:34;22.40;;;12.73;;
56043;SDS011;41912;51.022;3.664;2023-03-01T05:16:01;27.17;;;12.40;;
56043;SDS011;41912;51.022;3.664;2023-03-01T05:18:28;28.35;;;12.27;;
56043;SDS011;41912;51.022;3.664;2023-03-01T05:20:56;25.40;;;13.07;;
56043;SDS011;41912;51.022;3.664;2023-03-01T05:23:31;27.10;;;12.13;;
56043;SDS011;41912;51.022;3.664;2023-03-01T05:25:58;25.52;;;12.55;;
56043;SDS011;41912;51.022;3.664;2023-03-01T05:28:25;20.98;;;12.63;;
56043;SDS011;41912;51.022;3.664;2023-03-01T05:30:53;22.15;;;12.00;;
56043;SDS011;41912;51.022;3.664;2023-03-01T05:33:19;23.05;;;13.15;;
56043;SDS011;41912;51.022;3.664;2023-03-01T05:35:47;25.20;;;11.68;;
56043;SDS011;41912;51.022;3.664;2023-03-01T05:38:14;24.52;;;12.18;;
56043;SDS011;41912;51.022;3.664;2023-03-01T05:40:40;28.35;;;13.55;;
56043;SDS011;41912;51.022;3.664;2023-03-01T05:43:07;23.48;;;13.07;;
56043;SDS011;41912;51.022;3.664;2023-03-01T05:45:33;23.48;;;12.93;;
56043;SDS011;41912;51.022;3.664;2023-03-01T05:48:01;21.48;;;12.73;;
56043;SDS011;41912;51.022;3.664;2023-03-01T05:50:28;24.48;;;12.40;;
56043;SDS011;41912;51.022;3.664;2023-03-01T05:52:59;28.25;;;12.23;;
56043;SDS011;41912;51.022;3.664;2023-03-01T05:55:33;28.73;;;13.48;;
56043;SDS011;41912;51.022;3.664;2023-03-01T05:58:01;24.42;;;13.00;;
56043;SDS011;41912;51.022;3.664;2023-03-01T06:00:29;25.48;;;14.30;;
56043;SDS011;41912;51.022;3.664;2023-03-01T06:02:55;29.42;;;13.95;;
56043;SDS011;41912;51.022;3.664;2023-03-01T06:05:22;26.90;;;13.55;;
56043;SDS011;41912;51.022;3.664;2023-03-01T06:07:48;26.38;;;13.10;;
56043;SDS011;41912;51.022;3.664;2023-03-01T06:10:15;25.20;;;14.23;;
56043;SDS011;41912;51.022;3.664;2023-03-01T06:12:41;29.42;;;12.88;;
56043;SDS011;41912;51.022;3.664;2023-03-01T06:15:07;24.42;;;13.43;;
56043;SDS011;41912;51.022;3.664;2023-03-01T06:17:35;23.45;;;14.10;;
56043;SDS011;41912;51.022;3.664;2023-03-01T06:20:05;29.75;;;15.65;;
56043;SDS011;41912;51.022;3.664;2023-03-01T06:22:36;25.33;;;12.88;;
56043;SDS011;41912;51.022;3.664;2023-03-01T06:25:01;25.92;;;12.45;;
56043;SDS011;41912;51.022;3.664;2023-03-01T06:27:27;25.70;;;12.77;;
56043;SDS011;41912;51.022;3.664;2023-03-01T06:29:53;25.05;;;13.07;;
56043;SDS011;41912;51.022;3.664;2023-03-01T06:32:19;20.83;;;12.45;;
56043;SDS011;41912;51.022;3.664;2023-03-01T06:34:45;25.83;;;13.25;;
56043;SDS011;41912;51.022;3.664;2023-03-01T06:37:10;25.23;;;12.23;;
56043;SDS011;41912;51.022;3.664;2023-03-01T06:39:36;25.55;;;13.25;;
56043;SDS011;41912;51.022;3.664;2023-03-01T06:42:02;21.40;;;12.48;;
56043;SDS011;41912;51.022;3.664;2023-03-01T06:44:28;22.98;;;11.88;;
56043;SDS011;41912;51.022;3.664;2023-03-01T06:46:54;27.15;;;13.18;;
56043;SDS011;41912;51.022;3.664;2023-03-01T06:49:20;23.17;;;12.90;;
56043;SDS011;41912;51.022;3.664;2023-03-01T06:51:46;24.17;;;12.90;;
56043;SDS011;41912;51.022;3.664;2023-03-01T06:54:11;26.00;;;12.57;;
56043;SDS011;41912;51.022;3.664;2023-03-01T06:56:38;22.27;;;11.98;;
56043;SDS011;41912;51.022;3.664;2023-03-01T06:59:04;25.83;;;11.63;;
56043;SDS011;41912;51.022;3.664;2023-03-01T07:01:30;25.27;;;11.77;;
56043;SDS011;41912;51.022;3.664;2023-03-01T07:03:56;26.70;;;11.80;;
56043;SDS011;41912;51.022;3.664;2023-03-01T07:06:22;23.13;;;12.10;;
56043;SDS011;41912;51.022;3.664;2023-03-01T07:08:48;30.35;;;12.80;;
56043;SDS011;41912;51.022;3.664;2023-03-01T07:11:14;23.65;;;12.88;;
56043;SDS011;41912;51.022;3.664;2023-03-01T07:13:40;26.77;;;11.90;;
56043;SDS011;41912;51.022;3.664;2023-03-01T07:16:06;21.35;;;11.80;;
56043;SDS011;41912;51.022;3.664;2023-03-01T07:18:33;24.02;;;12.43;;
56043;SDS011;41912;51.022;3.664;2023-03-01T07:21:03;24.30;;;13.15;;
56043;SDS011;41912;51.022;3.664;2023-03-01T07:23:32;21.73;;;12.13;;
56043;SDS011;41912;51.022;3.664;2023-03-01T07:25:58;24.17;;;11.68;;
56043;SDS011;41912;51.022;3.664;2023-03-01T07:28:23;22.80;;;11.88;;
56043;SDS011;41912;51.022;3.664;2023-03-01T07:30:49;22.98;;;11.82;;
56043;SDS011;41912;51.022;3.664;2023-03-01T07:33:17;24.95;;;11.35;;
56043;SDS011;41912;51.022;3.664;2023-03-01T07:35:42;22.27;;;10.73;;
56043;SDS011;41912;51.022;3.664;2023-03-01T07:38:08;22.08;;;11.57;;
56043;SDS011;41912;51.022;3.664;2023-03-01T07:40:34;21.30;;;10.73;;
56043;SDS011;41912;51.022;3.664;2023-03-01T07:43:00;19.92;;;11.48;;
56043;SDS011;41912;51.022;3.664;2023-03-01T07:45:26;19.02;;;10.48;;
56043;SDS011;41912;51.022;3.664;2023-03-01T07:47:53;19.40;;;11.15;;
56043;SDS011;41912;51.022;3.664;2023-03-01T07:50:19;27.88;;;12.07;;
56043;SDS011;41912;51.022;3.664;2023-03-01T07:52:46;19.02;;;11.48;;
56043;SDS011;41912;51.022;3.664;2023-03-01T07:55:13;19.50;;;11.25;;
56043;SDS011;41912;51.022;3.664;2023-03-01T07:57:38;21.20;;;10.60;;
56043;SDS011;41912;51.022;3.664;2023-03-01T08:00:04;24.95;;;11.40;;
56043;SDS011;41912;51.022;3.664;2023-03-01T08:02:31;17.75;;;9.85;;
56043;SDS011;41912;51.022;3.664;2023-03-01T08:04:57;17.45;;;10.05;;
56043;SDS011;41912;51.022;3.664;2023-03-01T08:07:22;25.42;;;10.55;;
56043;SDS011;41912;51.022;3.664;2023-03-01T08:09:48;21.58;;;10.30;;
56043;SDS011;41912;51.022;3.664;2023-03-01T08:12:14;25.58;;;10.70;;
56043;SDS011;41912;51.022;3.664;2023-03-01T08:14:41;18.08;;;10.45;;
56043;SDS011;41912;51.022;3.664;2023-03-01T08:17:07;21.73;;;10.63;;
56043;SDS011;41912;51.022;3.664;2023-03-01T08:19:33;14.40;;;9.32;;
56043;SDS011;41912;51.022;3.664;2023-03-01T08:21:59;19.55;;;11.02;;
56043;SDS011;41912;51.022;3.664;2023-03-01T08:24:26;16.65;;;9.95;;
56043;SDS011;41912;51.022;3.664;2023-03-01T08:26:53;21.60;;;10.77;;
56043;SDS011;41912;51.022;3.664;2023-03-01T08:29:19;20.50;;;9.55;;
56043;SDS011;41912;51.022;3.664;2023-03-01T08:31:44;21.17;;;9.95;;
56043;SDS011;41912;51.022;3.664;2023-03-01T08:34:11;15.63;;;8.63;;
56043;SDS011;41912;51.022;3.664;2023-03-01T08:36:39;16.45;;;10.05;;
56043;SDS011;41912;51.022;3.664;2023-03-01T08:39:07;16.08;;;9.20;;
56043;SDS011;41912;51.022;3.664;2023-03-01T08:41:35;18.67;;;9.55;;
56043;SDS011;41912;51.022;3.664;2023-03-01T08:44:01;17.15;;;9.38;;
56043;SDS011;41912;51.022;3.664;2023-03-01T08:46:27;19.45;;;9.07;;
56043;SDS011;41912;51.022;3.664;2023-03-01T08:48:54;19.00;;;9.57;;
56043;SDS011;41912;51.022;3.664;2023-03-01T08:51:20;16.70;;;9.98;;
56043;SDS011;41912;51.022;3.664;2023-03-01T08:53:47;17.30;;;8.50;;
56043;SDS011;41912;51.022;3.664;2023-03-01T08:56:13;15.65;;;9.27;;
56043;SDS011;41912;51.022;3.664;2023-03-01T08:58:42;18.00;;;9.57;;
56043;SDS011;41912;51.022;3.664;2023-03-01T09:01:13;15.45;;;9.02;;
56043;SDS011;41912;51.022;3.664;2023-03-01T09:03:40;21.50;;;8.63;;
56043;SDS011;41912;51.022;3.664;2023-03-01T09:06:07;20.58;;;8.88;;
56043;SDS011;41912;51.022;3.664;2023-03-01T09:08:36;16.38;;;8.48;;
56043;SDS011;41912;51.022;3.664;2023-03-01T09:11:03;16.75;;;9.82;;
56043;SDS011;41912;51.022;3.664;2023-03-01T09:13:30;16.63;;;9.25;;
56043;SDS011;41912;51.022;3.664;2023-03-01T09:15:57;17.80;;;9.13;;
56043;SDS011;41912;51.022;3.664;2023-03-01T09:18:23;17.95;;;8.82;;
56043;SDS011;41912;51.022;3.664;2023-03-01T09:20:49;21.13;;;9.20;;
56043;SDS011;41912;51.022;3.664;2023-03-01T09:23:14;31.98;;;8.98;;
56043;SDS011;41912;51.022;3.664;2023-03-01T09:25:40;18.17;;;9.80;;
56043;SDS011;41912;51.022;3.664;2023-03-01T09:28:05;14.05;;;8.50;;
56043;SDS011;41912;51.022;3.664;2023-03-01T09:30:31;16.42;;;8.90;;
56043;SDS011;41912;51.022;3.664;2023-03-01T09:32:57;15.32;;;9.10;;
56043;SDS011;41912;51.022;3.664;2023-03-01T09:35:22;16.58;;;8.80;;
56043;SDS011;41912;51.022;3.664;2023-03-01T09:37:48;17.45;;;9.35;;
56043;SDS011;41912;51.022;3.664;2023-03-01T09:40:24;15.18;;;8.50;;
56043;SDS011;41912;51.022;3.664;2023-03-01T09:45:23;13.40;;;7.72;;
56043;SDS011;41912;51.022;3.664;2023-03-01T09:47:53;17.70;;;8.95;;
56043;SDS011;41912;51.022;3.664;2023-03-01T09:50:21;16.55;;;8.88;;
56043;SDS011;41912;51.022;3.664;2023-03-01T09:52:50;20.05;;;9.25;;
56043;SDS011;41912;51.022;3.664;2023-03-01T09:55:26;13.38;;;8.35;;
56043;SDS011;41912;51.022;3.664;2023-03-01T10:00:43;19.42;;;8.43;;
56043;SDS011;41912;51.022;3.664;2023-03-01T10:08:28;15.32;;;8.40;;
56043;SDS011;41912;51.022;3.664;2023-03-01T10:11:03;14.95;;;7.80;;
56043;SDS011;41912;51.022;3.664;2023-03-01T10:13:45;16.58;;;8.70;;
56043;SDS011;41912;51.022;3.664;2023-03-01T10:16:23;13.00;;;7.93;;
56043;SDS011;41912;51.022;3.664;2023-03-01T10:19:58;13.52;;;7.78;;
56043;SDS011;41912;51.022;3.664;2023-03-01T10:22:03;13.18;;;7.28;;
56043;SDS011;41912;51.022;3.664;2023-03-01T10:24:41;15.15;;;7.35;;
56043;SDS011;41912;51.022;3.664;2023-03-01T10:27:09;14.32;;;7.93;;
56043;SDS011;41912;51.022;3.664;2023-03-01T10:32:17;14.75;;;7.78;;
56043;SDS011;41912;51.022;3.664;2023-03-01T10:34:43;19.27;;;8.25;;
56043;SDS011;41912;51.022;3.664;2023-03-01T10:37:13;15.90;;;7.85;;
56043;SDS011;41912;51.022;3.664;2023-03-01T10:42:33;13.40;;;7.70;;
56043;SDS011;41912;51.022;3.664;2023-03-01T10:45:46;14.25;;;8.15;;
56043;SDS011;41912;51.022;3.664;2023-03-01T10:48:12;12.50;;;7.25;;
56043;SDS011;41912;51.022;3.664;2023-03-01T10:50:42;12.45;;;7.78;;
56043;SDS011;41912;51.022;3.664;2023-03-01T10:58:39;16.15;;;7.95;;
56043;SDS011;41912;51.022;3.664;2023-03-01T11:03:41;14.82;;;7.10;;
56043;SDS011;41912;51.022;3.664;2023-03-01T11:13:34;11.88;;;6.53;;
56043;SDS011;41912;51.022;3.664;2023-03-01T11:16:01;10.55;;;7.05;;
56043;SDS011;41912;51.022;3.664;2023-03-01T11:18:32;14.70;;;7.10;;
56043;SDS011;41912;51.022;3.664;2023-03-01T11:20:58;13.05;;;6.63;;
56043;SDS011;41912;51.022;3.664;2023-03-01T11:23:27;11.63;;;6.35;;
56043;SDS011;41912;51.022;3.664;2023-03-01T11:25:55;11.20;;;6.22;;
56043;SDS011;41912;51.022;3.664;2023-03-01T11:28:25;13.50;;;6.20;;
56043;SDS011;41912;51.022;3.664;2023-03-01T11:31:11;9.18;;;6.20;;
56043;SDS011;41912;51.022;3.664;2023-03-01T11:33:43;13.32;;;6.40;;
56043;SDS011;41912;51.022;3.664;2023-03-01T11:36:13;10.10;;;6.03;;
56043;SDS011;41912;51.022;3.664;2023-03-01T11:38:51;12.60;;;6.93;;
56043;SDS011;41912;51.022;3.664;2023-03-01T11:41:20;13.63;;;5.82;;
56043;SDS011;41912;51.022;3.664;2023-03-01T11:55:03;9.85;;;5.82;;
56043;SDS011;41912;51.022;3.664;2023-03-01T12:10:55;11.45;;;5.78;;
56043;SDS011;41912;51.022;3.664;2023-03-01T12:16:07;10.52;;;5.88;;
56043;SDS011;41912;51.022;3.664;2023-03-01T12:18:59;8.48;;;5.32;;
56043;SDS011;41912;51.022;3.664;2023-03-01T12:35:12;12.43;;;6.07;;
56043;SDS011;41912;51.022;3.664;2023-03-01T12:38:13;12.02;;;6.10;;
56043;SDS011;41912;51.022;3.664;2023-03-01T12:43:34;12.32;;;6.45;;
56043;SDS011;41912;51.022;3.664;2023-03-01T12:51:32;10.43;;;5.85;;
56043;SDS011;41912;51.022;3.664;2023-03-01T12:54:02;13.82;;;4.75;;
56043;SDS011;41912;51.022;3.664;2023-03-01T12:56:36;12.57;;;5.15;;
56043;SDS011;41912;51.022;3.664;2023-03-01T12:59:18;8.80;;;4.95;;
56043;SDS011;41912;51.022;3.664;2023-03-01T13:04:37;10.27;;;5.15;;
56043;SDS011;41912;51.022;3.664;2023-03-01T13:12:52;8.35;;;5.50;;
56043;SDS011;41912;51.022;3.664;2023-03-01T13:17:47;12.60;;;4.68;;
56043;SDS011;41912;51.022;3.664;2023-03-01T13:20:18;9.90;;;5.43;;
56043;SDS011;41912;51.022;3.664;2023-03-01T13:22:46;10.02;;;5.82;;
56043;SDS011;41912;51.022;3.664;2023-03-01T13:27:40;9.27;;;5.13;;
56043;SDS011;41912;51.022;3.664;2023-03-01T13:30:37;10.20;;;5.50;;
56043;SDS011;41912;51.022;3.664;2023-03-01T13:35:52;9.75;;;5.45;;
56043;SDS011;41912;51.022;3.664;2023-03-01T13:42:25;9.30;;;5.32;;
56043;SDS011;41912;51.022;3.664;2023-03-01T13:46:52;12.93;;;6.70;;
56043;SDS011;41912;51.022;3.664;2023-03-01T13:49:26;13.95;;;5.60;;
56043;SDS011;41912;51.022;3.664;2023-03-01T13:51:53;9.60;;;5.80;;
56043;SDS011;41912;51.022;3.664;2023-03-01T13:54:30;11.77;;;6.70;;
56043;SDS011;41912;51.022;3.664;2023-03-01T13:56:57;10.88;;;5.82;;
56043;SDS011;41912;51.022;3.664;2023-03-01T13:59:25;9.30;;;5.78;;
56043;SDS011;41912;51.022;3.664;2023-03-01T14:01:55;12.05;;;5.68;;
56043;SDS011;41912;51.022;3.664;2023-03-01T14:04:32;12.40;;;6.50;;
56043;SDS011;41912;51.022;3.664;2023-03-01T14:07:20;14.07;;;7.18;;
56043;SDS011;41912;51.022;3.664;2023-03-01T14:09:51;16.60;;;6.10;;
56043;SDS011;41912;51.022;3.664;2023-03-01T14:15:02;11.00;;;6.13;;
56043;SDS011;41912;51.022;3.664;2023-03-01T14:17:33;13.63;;;6.60;;
56043;SDS011;41912;51.022;3.664;2023-03-01T14:20:24;14.25;;;6.47;;
56043;SDS011;41912;51.022;3.664;2023-03-01T14:22:53;11.48;;;6.78;;
56043;SDS011;41912;51.022;3.664;2023-03-01T14:30:51;12.07;;;6.13;;
56043;SDS011;41912;51.022;3.664;2023-03-01T14:33:25;11.02;;;5.97;;
56043;SDS011;41912;51.022;3.664;2023-03-01T14:36:06;10.90;;;6.50;;
56043;SDS011;41912;51.022;3.664;2023-03-01T14:38:38;12.25;;;6.78;;
56043;SDS011;41912;51.022;3.664;2023-03-01T14:43:43;16.15;;;6.50;;
56043;SDS011;41912;51.022;3.664;2023-03-01T14:46:22;12.45;;;6.22;;
56043;SDS011;41912;51.022;3.664;2023-03-01T14:48:51;10.23;;;5.70;;
56043;SDS011;41912;51.022;3.664;2023-03-01T14:51:21;12.88;;;6.18;;
56043;SDS011;41912;51.022;3.664;2023-03-01T14:53:47;11.02;;;6.25;;
56043;SDS011;41912;51.022;3.664;2023-03-01T14:56:15;8.73;;;5.40;;
56043;SDS011;41912;51.022;3.664;2023-03-01T14:58:44;11.25;;;6.18;;
56043;SDS011;41912;51.022;3.664;2023-03-01T15:01:13;9.40;;;5.85;;
56043;SDS011;41912;51.022;3.664;2023-03-01T15:03:42;11.05;;;5.95;;
56043;SDS011;41912;51.022;3.664;2023-03-01T15:06:10;9.85;;;6.00;;
56043;SDS011;41912;51.022;3.664;2023-03-01T15:08:41;17.23;;;6.97;;
56043;SDS011;41912;51.022;3.664;2023-03-01T15:13:39;14.15;;;7.93;;
56043;SDS011;41912;51.022;3.664;2023-03-01T15:18:35;10.60;;;5.90;;
56043;SDS011;41912;51.022;3.664;2023-03-01T15:21:06;10.05;;;6.20;;
56043;SDS011;41912;51.022;3.664;2023-03-01T15:23:40;10.63;;;5.68;;
56043;SDS011;41912;51.022;3.664;2023-03-01T15:26:05;10.18;;;6.45;;
56043;SDS011;41912;51.022;3.664;2023-03-01T15:28:34;15.48;;;6.20;;
56043;SDS011;41912;51.022;3.664;2023-03-01T15:31:12;9.57;;;5.65;;
56043;SDS011;41912;51.022;3.664;2023-03-01T15:33:42;10.95;;;5.43;;
56043;SDS011;41912;51.022;3.664;2023-03-01T15:42:03;10.55;;;6.03;;
56043;SDS011;41912;51.022;3.664;2023-03-01T15:44:48;9.55;;;5.80;;
56043;SDS011;41912;51.022;3.664;2023-03-01T15:47:21;11.98;;;6.00;;
56043;SDS011;41912;51.022;3.664;2023-03-01T15:49:51;8.93;;;5.63;;
56043;SDS011;41912;51.022;3.664;2023-03-01T15:52:29;14.23;;;6.57;;
56043;SDS011;41912;51.022;3.664;2023-03-01T15:55:05;13.30;;;6.88;;
56043;SDS011;41912;51.022;3.664;2023-03-01T15:57:40;12.18;;;6.90;;
56043;SDS011;41912;51.022;3.664;2023-03-01T16:00:08;10.68;;;6.43;;
56043;SDS011;41912;51.022;3.664;2023-03-01T16:02:36;10.32;;;6.40;;
56043;SDS011;41912;51.022;3.664;2023-03-01T16:05:03;11.98;;;6.63;;
56043;SDS011;41912;51.022;3.664;2023-03-01T16:07:29;10.88;;;6.28;;
56043;SDS011;41912;51.022;3.664;2023-03-01T16:09:56;14.00;;;6.50;;
56043;SDS011;41912;51.022;3.664;2023-03-01T16:12:22;11.43;;;6.57;;
56043;SDS011;41912;51.022;3.664;2023-03-01T16:14:49;11.75;;;6.35;;
56043;SDS011;41912;51.022;3.664;2023-03-01T16:17:15;10.57;;;6.20;;
56043;SDS011;41912;51.022;3.664;2023-03-01T16:19:41;13.40;;;7.05;;
56043;SDS011;41912;51.022;3.664;2023-03-01T16:22:07;12.18;;;6.30;;
56043;SDS011;41912;51.022;3.664;2023-03-01T16:24:35;11.73;;;6.40;;
56043;SDS011;41912;51.022;3.664;2023-03-01T16:27:01;14.30;;;6.30;;
56043;SDS011;41912;51.022;3.664;2023-03-01T16:29:27;12.25;;;6.55;;
56043;SDS011;41912;51.022;3.664;2023-03-01T16:31:54;12.07;;;6.78;;
56043;SDS011;41912;51.022;3.664;2023-03-01T16:34:20;12.85;;;6.95;;
56043;SDS011;41912;51.022;3.664;2023-03-01T16:36:46;13.32;;;7.15;;
56043;SDS011;41912;51.022;3.664;2023-03-01T16:39:12;14.30;;;7.50;;
56043;SDS011;41912;51.022;3.664;2023-03-01T16:41:38;10.27;;;6.85;;
56043;SDS011;41912;51.022;3.664;2023-03-01T16:44:04;15.02;;;7.47;;
56043;SDS011;41912;51.022;3.664;2023-03-01T16:46:29;10.50;;;6.85;;
56043;SDS011;41912;51.022;3.664;2023-03-01T16:48:55;11.05;;;6.85;;
56043;SDS011;41912;51.022;3.664;2023-03-01T16:51:22;12.48;;;6.70;;
56043;SDS011;41912;51.022;3.664;2023-03-01T16:53:48;12.82;;;6.93;;
56043;SDS011;41912;51.022;3.664;2023-03-01T16:56:15;16.67;;;7.70;;
56043;SDS011;41912;51.022;3.664;2023-03-01T16:58:41;13.30;;;8.15;;